sensor_id;sensor_type;location;lat;lon;timestamp;temperature;humidity
48728;DHT22;34527;45.618;5.130;2023-07-02T00:01:10;18.80;99.90
48728;DHT22;34527;45.618;5.130;2023-07-02T00:03:37;18.80;99.90
48728;DHT22;34527;45.618;5.130;2023-07-02T00:06:03;18.80;99.90
48728;DHT22;34527;45.618;5.130;2023-07-02T00:08:28;18.80;99.90
48728;DHT22;34527;45.618;5.130;2023-07-02T00:10:54;18.70;99.90
48728;DHT22;34527;45.618;5.130;2023-07-02T00:13:19;18.70;99.90
48728;DHT22;34527;45.618;5.130;2023-07-02T00:15:45;18.80;99.90
48728;DHT22;34527;45.618;5.130;2023-07-02T00:18:11;18.80;99.90
48728;DHT22;34527;45.618;5.130;2023-07-02T00:20:42;18.80;99.90
48728;DHT22;34527;45.618;5.130;2023-07-02T00:23:08;18.80;99.90
48728;DHT22;34527;45.618;5.130;2023-07-02T00:25:35;18.80;99.90
48728;DHT22;34527;45.618;5.130;2023-07-02T00:28:01;18.80;99.90
48728;DHT22;34527;45.618;5.130;2023-07-02T00:30:27;18.80;99.90
48728;DHT22;34527;45.618;5.130;2023-07-02T00:32:52;18.80;99.90
48728;DHT22;34527;45.618;5.130;2023-07-02T00:35:18;18.80;99.90
48728;DHT22;34527;45.618;5.130;2023-07-02T00:37:43;18.80;99.90
48728;DHT22;34527;45.618;5.130;2023-07-02T00:40:09;18.80;99.90
48728;DHT22;34527;45.618;5.130;2023-07-02T00:42:35;18.80;99.90
48728;DHT22;34527;45.618;5.130;2023-07-02T00:45:01;18.80;99.90
48728;DHT22;34527;45.618;5.130;2023-07-02T00:47:30;18.80;99.90
48728;DHT22;34527;45.618;5.130;2023-07-02T00:49:58;18.80;99.90
48728;DHT22;34527;45.618;5.130;2023-07-02T00:52:25;18.80;99.90
48728;DHT22;34527;45.618;5.130;2023-07-02T00:54:51;18.80;99.90
48728;DHT22;34527;45.618;5.130;2023-07-02T00:57:17;18.80;99.90
48728;DHT22;34527;45.618;5.130;2023-07-02T00:59:43;18.70;99.90
48728;DHT22;34527;45.618;5.130;2023-07-02T01:02:08;18.70;99.90
48728;DHT22;34527;45.618;5.130;2023-07-02T01:04:34;18.70;99.90
48728;DHT22;34527;45.618;5.130;2023-07-02T01:07:00;18.80;99.90
48728;DHT22;34527;45.618;5.130;2023-07-02T01:09:26;18.80;99.90
48728;DHT22;34527;45.618;5.130;2023-07-02T01:11:59;18.70;99.90
48728;DHT22;34527;45.618;5.130;2023-07-02T01:14:48;18.70;99.90
48728;DHT22;34527;45.618;5.130;2023-07-02T01:17:13;18.70;99.90
48728;DHT22;34527;45.618;5.130;2023-07-02T01:22:08;18.60;99.90
48728;DHT22;34527;45.618;5.130;2023-07-02T01:24:34;18.70;99.90
48728;DHT22;34527;45.618;5.130;2023-07-02T01:27:00;18.70;99.90
48728;DHT22;34527;45.618;5.130;2023-07-02T01:29:29;18.70;99.90
48728;DHT22;34527;45.618;5.130;2023-07-02T01:31:55;18.60;99.90
48728;DHT22;34527;45.618;5.130;2023-07-02T01:34:21;18.60;99.90
48728;DHT22;34527;45.618;5.130;2023-07-02T01:36:47;18.60;99.90
48728;DHT22;34527;45.618;5.130;2023-07-02T01:39:12;18.60;99.90
48728;DHT22;34527;45.618;5.130;2023-07-02T01:41:52;18.60;99.90
48728;DHT22;34527;45.618;5.130;2023-07-02T01:44:19;18.60;99.90
48728;DHT22;34527;45.618;5.130;2023-07-02T01:46:45;18.50;99.90
48728;DHT22;34527;45.618;5.130;2023-07-02T01:49:20;18.50;99.90
48728;DHT22;34527;45.618;5.130;2023-07-02T01:51:52;18.40;99.90
48728;DHT22;34527;45.618;5.130;2023-07-02T01:54:19;18.40;99.90
48728;DHT22;34527;45.618;5.130;2023-07-02T01:56:45;18.40;99.90
48728;DHT22;34527;45.618;5.130;2023-07-02T01:59:11;18.40;99.90
48728;DHT22;34527;45.618;5.130;2023-07-02T02:01:37;18.30;99.90
48728;DHT22;34527;45.618;5.130;2023-07-02T02:04:10;18.30;99.90
48728;DHT22;34527;45.618;5.130;2023-07-02T02:06:36;18.30;99.90
48728;DHT22;34527;45.618;5.130;2023-07-02T02:09:02;18.30;99.90
48728;DHT22;34527;45.618;5.130;2023-07-02T02:11:30;18.30;99.90
48728;DHT22;34527;45.618;5.130;2023-07-02T02:13:57;18.20;99.90
48728;DHT22;34527;45.618;5.130;2023-07-02T02:16:22;18.30;99.90
48728;DHT22;34527;45.618;5.130;2023-07-02T02:18:48;18.20;99.90
48728;DHT22;34527;45.618;5.130;2023-07-02T02:21:17;18.20;99.90
48728;DHT22;34527;45.618;5.130;2023-07-02T02:23:43;18.20;99.90
48728;DHT22;34527;45.618;5.130;2023-07-02T02:26:09;18.20;99.90
48728;DHT22;34527;45.618;5.130;2023-07-02T02:28:35;18.20;99.90
48728;DHT22;34527;45.618;5.130;2023-07-02T02:31:00;18.10;99.90
48728;DHT22;34527;45.618;5.130;2023-07-02T02:33:26;18.10;99.90
48728;DHT22;34527;45.618;5.130;2023-07-02T02:35:52;18.10;99.90
48728;DHT22;34527;45.618;5.130;2023-07-02T02:38:17;18.00;99.90
48728;DHT22;34527;45.618;5.130;2023-07-02T02:40:43;18.10;99.90
48728;DHT22;34527;45.618;5.130;2023-07-02T02:43:09;18.00;99.90
48728;DHT22;34527;45.618;5.130;2023-07-02T02:45:34;18.00;99.90
48728;DHT22;34527;45.618;5.130;2023-07-02T02:48:00;18.00;99.90
48728;DHT22;34527;45.618;5.130;2023-07-02T02:50:25;18.00;99.90
48728;DHT22;34527;45.618;5.130;2023-07-02T02:52:51;17.90;99.90
48728;DHT22;34527;45.618;5.130;2023-07-02T02:55:17;17.90;99.90
48728;DHT22;34527;45.618;5.130;2023-07-02T02:57:42;17.90;99.90
48728;DHT22;34527;45.618;5.130;2023-07-02T03:00:08;17.90;99.90
48728;DHT22;34527;45.618;5.130;2023-07-02T03:02:35;17.90;99.90
48728;DHT22;34527;45.618;5.130;2023-07-02T03:05:01;17.90;99.90
48728;DHT22;34527;45.618;5.130;2023-07-02T03:07:28;17.90;99.90
48728;DHT22;34527;45.618;5.130;2023-07-02T03:09:53;17.90;99.90
48728;DHT22;34527;45.618;5.130;2023-07-02T03:12:19;17.90;99.90
48728;DHT22;34527;45.618;5.130;2023-07-02T03:14:45;17.90;99.90
48728;DHT22;34527;45.618;5.130;2023-07-02T03:17:13;17.90;99.90
48728;DHT22;34527;45.618;5.130;2023-07-02T03:19:38;17.90;99.90
48728;DHT22;34527;45.618;5.130;2023-07-02T03:22:04;17.90;99.90
48728;DHT22;34527;45.618;5.130;2023-07-02T03:24:30;17.90;99.90
48728;DHT22;34527;45.618;5.130;2023-07-02T03:26:55;17.90;99.90
48728;DHT22;34527;45.618;5.130;2023-07-02T03:29:21;17.80;99.90
48728;DHT22;34527;45.618;5.130;2023-07-02T03:31:47;17.80;99.90
48728;DHT22;34527;45.618;5.130;2023-07-02T03:34:12;17.80;99.90
48728;DHT22;34527;45.618;5.130;2023-07-02T03:36:38;17.90;99.90
48728;DHT22;34527;45.618;5.130;2023-07-02T03:39:04;17.80;99.90
48728;DHT22;34527;45.618;5.130;2023-07-02T03:41:30;17.80;99.90
48728;DHT22;34527;45.618;5.130;2023-07-02T03:43:56;17.70;99.90
48728;DHT22;34527;45.618;5.130;2023-07-02T03:46:22;17.70;99.90
48728;DHT22;34527;45.618;5.130;2023-07-02T03:48:47;17.70;99.90
48728;DHT22;34527;45.618;5.130;2023-07-02T03:51:13;17.70;99.90
48728;DHT22;34527;45.618;5.130;2023-07-02T03:53:43;17.80;99.90
48728;DHT22;34527;45.618;5.130;2023-07-02T03:56:08;17.60;99.90
48728;DHT22;34527;45.618;5.130;2023-07-02T03:58:34;17.60;99.90
48728;DHT22;34527;45.618;5.130;2023-07-02T04:01:00;17.70;99.90
48728;DHT22;34527;45.618;5.130;2023-07-02T04:03:26;17.70;99.90
48728;DHT22;34527;45.618;5.130;2023-07-02T04:05:51;17.70;99.90
48728;DHT22;34527;45.618;5.130;2023-07-02T04:08:17;17.70;99.90
48728;DHT22;34527;45.618;5.130;2023-07-02T04:10:43;17.60;99.90
48728;DHT22;34527;45.618;5.130;2023-07-02T04:13:09;17.60;99.90
48728;DHT22;34527;45.618;5.130;2023-07-02T04:15:35;17.60;99.90
48728;DHT22;34527;45.618;5.130;2023-07-02T04:18:00;17.70;99.90
48728;DHT22;34527;45.618;5.130;2023-07-02T04:20:27;17.70;99.90
48728;DHT22;34527;45.618;5.130;2023-07-02T04:22:53;17.70;99.90
48728;DHT22;34527;45.618;5.130;2023-07-02T04:25:19;17.70;99.90
48728;DHT22;34527;45.618;5.130;2023-07-02T04:27:45;17.70;99.90
48728;DHT22;34527;45.618;5.130;2023-07-02T04:30:11;17.70;99.90
48728;DHT22;34527;45.618;5.130;2023-07-02T04:32:38;17.80;99.90
48728;DHT22;34527;45.618;5.130;2023-07-02T04:35:07;17.80;99.90
48728;DHT22;34527;45.618;5.130;2023-07-02T04:37:33;17.80;99.90
48728;DHT22;34527;45.618;5.130;2023-07-02T04:39:59;17.70;99.90
48728;DHT22;34527;45.618;5.130;2023-07-02T04:42:26;17.80;99.90
48728;DHT22;34527;45.618;5.130;2023-07-02T04:44:55;17.80;99.90
48728;DHT22;34527;45.618;5.130;2023-07-02T04:47:21;17.80;99.90
48728;DHT22;34527;45.618;5.130;2023-07-02T04:49:47;17.70;99.90
48728;DHT22;34527;45.618;5.130;2023-07-02T04:52:12;17.70;99.90
48728;DHT22;34527;45.618;5.130;2023-07-02T04:54:38;17.80;99.90
48728;DHT22;34527;45.618;5.130;2023-07-02T04:57:04;17.80;99.90
48728;DHT22;34527;45.618;5.130;2023-07-02T04:59:29;17.80;99.90
48728;DHT22;34527;45.618;5.130;2023-07-02T05:01:55;17.90;99.90
48728;DHT22;34527;45.618;5.130;2023-07-02T05:04:20;17.80;99.90
48728;DHT22;34527;45.618;5.130;2023-07-02T05:06:46;17.80;99.90
48728;DHT22;34527;45.618;5.130;2023-07-02T05:09:12;17.90;99.90
48728;DHT22;34527;45.618;5.130;2023-07-02T05:11:37;17.90;99.90
48728;DHT22;34527;45.618;5.130;2023-07-02T05:14:03;18.00;99.90
48728;DHT22;34527;45.618;5.130;2023-07-02T05:16:29;17.90;99.90
48728;DHT22;34527;45.618;5.130;2023-07-02T05:18:54;17.80;99.90
48728;DHT22;34527;45.618;5.130;2023-07-02T05:21:20;17.90;99.90
48728;DHT22;34527;45.618;5.130;2023-07-02T05:23:47;17.90;99.90
48728;DHT22;34527;45.618;5.130;2023-07-02T05:26:12;17.90;99.90
48728;DHT22;34527;45.618;5.130;2023-07-02T05:28:38;17.90;99.90
48728;DHT22;34527;45.618;5.130;2023-07-02T05:31:03;18.00;99.90
48728;DHT22;34527;45.618;5.130;2023-07-02T05:33:29;18.00;99.90
48728;DHT22;34527;45.618;5.130;2023-07-02T05:35:57;18.00;99.90
48728;DHT22;34527;45.618;5.130;2023-07-02T05:38:23;18.00;99.90
48728;DHT22;34527;45.618;5.130;2023-07-02T05:40:49;18.00;99.90
48728;DHT22;34527;45.618;5.130;2023-07-02T05:43:15;18.00;99.90
48728;DHT22;34527;45.618;5.130;2023-07-02T05:45:40;18.00;99.90
48728;DHT22;34527;45.618;5.130;2023-07-02T05:48:06;17.90;99.90
48728;DHT22;34527;45.618;5.130;2023-07-02T05:50:32;17.90;99.90
48728;DHT22;34527;45.618;5.130;2023-07-02T05:52:57;17.90;99.90
48728;DHT22;34527;45.618;5.130;2023-07-02T05:55:23;17.90;99.90
48728;DHT22;34527;45.618;5.130;2023-07-02T05:57:48;17.90;99.90
48728;DHT22;34527;45.618;5.130;2023-07-02T06:00:14;17.90;99.90
48728;DHT22;34527;45.618;5.130;2023-07-02T06:02:40;17.90;99.90
48728;DHT22;34527;45.618;5.130;2023-07-02T06:05:06;18.00;99.90
48728;DHT22;34527;45.618;5.130;2023-07-02T06:07:32;18.00;99.90
48728;DHT22;34527;45.618;5.130;2023-07-02T06:09:57;18.00;99.90
48728;DHT22;34527;45.618;5.130;2023-07-02T06:12:23;17.90;99.90
48728;DHT22;34527;45.618;5.130;2023-07-02T06:14:49;18.00;99.90
48728;DHT22;34527;45.618;5.130;2023-07-02T06:17:14;18.00;99.90
48728;DHT22;34527;45.618;5.130;2023-07-02T06:19:40;18.00;99.90
48728;DHT22;34527;45.618;5.130;2023-07-02T06:22:06;18.00;99.90
48728;DHT22;34527;45.618;5.130;2023-07-02T06:24:32;18.10;99.90
48728;DHT22;34527;45.618;5.130;2023-07-02T06:26:57;18.10;99.90
48728;DHT22;34527;45.618;5.130;2023-07-02T06:29:23;18.20;99.90
48728;DHT22;34527;45.618;5.130;2023-07-02T06:31:50;18.20;99.90
48728;DHT22;34527;45.618;5.130;2023-07-02T06:34:16;18.20;99.90
48728;DHT22;34527;45.618;5.130;2023-07-02T06:36:42;18.30;99.90
48728;DHT22;34527;45.618;5.130;2023-07-02T06:39:08;18.20;99.90
48728;DHT22;34527;45.618;5.130;2023-07-02T06:41:37;18.30;99.90
48728;DHT22;34527;45.618;5.130;2023-07-02T06:44:03;18.30;99.90
48728;DHT22;34527;45.618;5.130;2023-07-02T06:46:30;18.40;99.90
48728;DHT22;34527;45.618;5.130;2023-07-02T06:48:56;18.40;99.90
48728;DHT22;34527;45.618;5.130;2023-07-02T06:51:22;18.40;99.90
48728;DHT22;34527;45.618;5.130;2023-07-02T06:53:48;18.40;99.90
48728;DHT22;34527;45.618;5.130;2023-07-02T06:56:13;18.40;99.90
48728;DHT22;34527;45.618;5.130;2023-07-02T06:58:41;18.40;99.90
48728;DHT22;34527;45.618;5.130;2023-07-02T07:01:07;18.50;99.90
48728;DHT22;34527;45.618;5.130;2023-07-02T07:03:34;18.50;99.90
48728;DHT22;34527;45.618;5.130;2023-07-02T07:05:59;18.60;99.90
48728;DHT22;34527;45.618;5.130;2023-07-02T07:08:25;18.60;99.90
48728;DHT22;34527;45.618;5.130;2023-07-02T07:10:51;18.60;99.90
48728;DHT22;34527;45.618;5.130;2023-07-02T07:13:16;18.50;99.90
48728;DHT22;34527;45.618;5.130;2023-07-02T07:15:42;18.60;99.90
48728;DHT22;34527;45.618;5.130;2023-07-02T07:18:09;18.80;99.90
48728;DHT22;34527;45.618;5.130;2023-07-02T07:20:34;18.90;99.90
48728;DHT22;34527;45.618;5.130;2023-07-02T07:23:02;18.90;99.90
48728;DHT22;34527;45.618;5.130;2023-07-02T07:25:27;19.00;99.90
48728;DHT22;34527;45.618;5.130;2023-07-02T07:27:53;19.00;99.90
48728;DHT22;34527;45.618;5.130;2023-07-02T07:30:20;19.00;99.90
48728;DHT22;34527;45.618;5.130;2023-07-02T07:32:49;19.00;99.90
48728;DHT22;34527;45.618;5.130;2023-07-02T07:35:15;18.80;99.90
48728;DHT22;34527;45.618;5.130;2023-07-02T07:37:41;18.90;99.90
48728;DHT22;34527;45.618;5.130;2023-07-02T07:40:07;19.00;99.90
48728;DHT22;34527;45.618;5.130;2023-07-02T07:42:33;19.00;99.90
48728;DHT22;34527;45.618;5.130;2023-07-02T07:44:58;19.20;99.90
48728;DHT22;34527;45.618;5.130;2023-07-02T07:47:24;19.20;99.90
48728;DHT22;34527;45.618;5.130;2023-07-02T07:49:49;19.20;99.90
48728;DHT22;34527;45.618;5.130;2023-07-02T07:52:15;19.40;99.90
48728;DHT22;34527;45.618;5.130;2023-07-02T07:54:41;19.40;99.90
48728;DHT22;34527;45.618;5.130;2023-07-02T07:57:06;19.30;99.90
48728;DHT22;34527;45.618;5.130;2023-07-02T07:59:32;19.30;99.90
48728;DHT22;34527;45.618;5.130;2023-07-02T08:01:57;19.50;99.90
48728;DHT22;34527;45.618;5.130;2023-07-02T08:04:23;19.70;99.90
48728;DHT22;34527;45.618;5.130;2023-07-02T08:06:49;19.80;99.90
48728;DHT22;34527;45.618;5.130;2023-07-02T08:09:14;19.80;99.90
48728;DHT22;34527;45.618;5.130;2023-07-02T08:11:40;19.70;99.90
48728;DHT22;34527;45.618;5.130;2023-07-02T08:14:05;19.80;99.90
48728;DHT22;34527;45.618;5.130;2023-07-02T08:16:31;19.90;99.90
48728;DHT22;34527;45.618;5.130;2023-07-02T08:18:57;19.80;99.90
48728;DHT22;34527;45.618;5.130;2023-07-02T08:21:22;19.80;99.90
48728;DHT22;34527;45.618;5.130;2023-07-02T08:23:48;19.80;99.90
48728;DHT22;34527;45.618;5.130;2023-07-02T08:26:13;19.80;99.90
48728;DHT22;34527;45.618;5.130;2023-07-02T08:28:39;19.80;99.90
48728;DHT22;34527;45.618;5.130;2023-07-02T08:31:05;19.80;99.90
48728;DHT22;34527;45.618;5.130;2023-07-02T08:33:31;19.70;99.90
48728;DHT22;34527;45.618;5.130;2023-07-02T08:35:56;19.70;99.90
48728;DHT22;34527;45.618;5.130;2023-07-02T08:38:23;19.70;99.90
48728;DHT22;34527;45.618;5.130;2023-07-02T08:40:51;19.60;99.90
48728;DHT22;34527;45.618;5.130;2023-07-02T08:43:17;19.60;99.90
48728;DHT22;34527;45.618;5.130;2023-07-02T08:45:43;19.60;99.90
48728;DHT22;34527;45.618;5.130;2023-07-02T08:48:10;19.70;99.90
48728;DHT22;34527;45.618;5.130;2023-07-02T08:50:36;19.70;99.90
48728;DHT22;34527;45.618;5.130;2023-07-02T08:53:01;19.60;99.90
48728;DHT22;34527;45.618;5.130;2023-07-02T08:55:27;19.60;99.90
48728;DHT22;34527;45.618;5.130;2023-07-02T08:57:56;19.60;99.90
48728;DHT22;34527;45.618;5.130;2023-07-02T09:00:26;19.70;99.90
48728;DHT22;34527;45.618;5.130;2023-07-02T09:02:52;19.70;99.90
48728;DHT22;34527;45.618;5.130;2023-07-02T09:05:18;19.80;99.90
48728;DHT22;34527;45.618;5.130;2023-07-02T09:07:47;19.90;99.90
48728;DHT22;34527;45.618;5.130;2023-07-02T09:10:25;20.00;99.90
48728;DHT22;34527;45.618;5.130;2023-07-02T09:13:02;20.10;99.90
48728;DHT22;34527;45.618;5.130;2023-07-02T09:15:37;20.10;99.90
48728;DHT22;34527;45.618;5.130;2023-07-02T09:18:03;20.20;99.90
48728;DHT22;34527;45.618;5.130;2023-07-02T09:20:39;20.30;99.90
48728;DHT22;34527;45.618;5.130;2023-07-02T09:23:04;20.20;99.90
48728;DHT22;34527;45.618;5.130;2023-07-02T09:25:40;20.30;99.90
48728;DHT22;34527;45.618;5.130;2023-07-02T09:30:55;20.30;99.90
48728;DHT22;34527;45.618;5.130;2023-07-02T09:33:25;20.60;99.90
48728;DHT22;34527;45.618;5.130;2023-07-02T09:35:51;20.90;99.90
48728;DHT22;34527;45.618;5.130;2023-07-02T09:38:21;20.90;99.90
48728;DHT22;34527;45.618;5.130;2023-07-02T09:40:49;20.80;99.90
48728;DHT22;34527;45.618;5.130;2023-07-02T09:43:19;20.80;99.90
48728;DHT22;34527;45.618;5.130;2023-07-02T09:45:50;20.80;99.90
48728;DHT22;34527;45.618;5.130;2023-07-02T09:48:17;21.10;99.90
48728;DHT22;34527;45.618;5.130;2023-07-02T09:50:44;21.10;99.90
48728;DHT22;34527;45.618;5.130;2023-07-02T09:53:10;21.00;99.90
48728;DHT22;34527;45.618;5.130;2023-07-02T09:55:46;20.90;99.90
48728;DHT22;34527;45.618;5.130;2023-07-02T09:58:12;21.10;99.90
48728;DHT22;34527;45.618;5.130;2023-07-02T10:00:38;21.10;99.90
48728;DHT22;34527;45.618;5.130;2023-07-02T10:03:04;20.80;99.90
48728;DHT22;34527;45.618;5.130;2023-07-02T10:05:31;20.70;99.90
48728;DHT22;34527;45.618;5.130;2023-07-02T10:07:59;20.60;99.90
48728;DHT22;34527;45.618;5.130;2023-07-02T10:10:28;20.60;99.90
48728;DHT22;34527;45.618;5.130;2023-07-02T10:12:54;20.70;99.90
48728;DHT22;34527;45.618;5.130;2023-07-02T10:15:27;20.80;99.90
48728;DHT22;34527;45.618;5.130;2023-07-02T10:18:02;20.80;99.90
48728;DHT22;34527;45.618;5.130;2023-07-02T10:20:39;21.00;99.90
48728;DHT22;34527;45.618;5.130;2023-07-02T10:23:06;20.90;99.90
48728;DHT22;34527;45.618;5.130;2023-07-02T10:28:00;20.70;99.90
48728;DHT22;34527;45.618;5.130;2023-07-02T10:30:34;20.70;99.90
48728;DHT22;34527;45.618;5.130;2023-07-02T10:33:14;20.70;99.90
48728;DHT22;34527;45.618;5.130;2023-07-02T10:35:41;20.70;99.90
48728;DHT22;34527;45.618;5.130;2023-07-02T10:38:12;20.70;99.90
48728;DHT22;34527;45.618;5.130;2023-07-02T10:40:39;20.60;99.90
48728;DHT22;34527;45.618;5.130;2023-07-02T10:43:05;20.60;99.90
48728;DHT22;34527;45.618;5.130;2023-07-02T10:45:33;20.50;99.90
48728;DHT22;34527;45.618;5.130;2023-07-02T10:48:00;20.40;99.90
48728;DHT22;34527;45.618;5.130;2023-07-02T10:50:26;20.40;99.90
48728;DHT22;34527;45.618;5.130;2023-07-02T10:52:53;20.40;99.90
48728;DHT22;34527;45.618;5.130;2023-07-02T10:55:23;20.50;99.90
48728;DHT22;34527;45.618;5.130;2023-07-02T10:57:50;20.60;99.90
48728;DHT22;34527;45.618;5.130;2023-07-02T11:00:19;20.60;99.90
48728;DHT22;34527;45.618;5.130;2023-07-02T11:02:45;20.70;99.90
48728;DHT22;34527;45.618;5.130;2023-07-02T11:05:10;21.00;99.90
48728;DHT22;34527;45.618;5.130;2023-07-02T11:07:43;21.20;99.90
48728;DHT22;34527;45.618;5.130;2023-07-02T11:10:09;21.20;99.90
48728;DHT22;34527;45.618;5.130;2023-07-02T11:12:35;21.40;99.90
48728;DHT22;34527;45.618;5.130;2023-07-02T11:15:12;21.50;99.90
48728;DHT22;34527;45.618;5.130;2023-07-02T11:17:39;21.70;99.90
48728;DHT22;34527;45.618;5.130;2023-07-02T11:20:10;21.80;99.90
48728;DHT22;34527;45.618;5.130;2023-07-02T11:22:36;21.80;99.90
48728;DHT22;34527;45.618;5.130;2023-07-02T11:25:13;21.70;99.90
48728;DHT22;34527;45.618;5.130;2023-07-02T11:27:40;21.50;99.90
48728;DHT22;34527;45.618;5.130;2023-07-02T11:30:06;21.40;99.90
48728;DHT22;34527;45.618;5.130;2023-07-02T11:32:46;21.50;99.90
48728;DHT22;34527;45.618;5.130;2023-07-02T11:35:14;21.40;99.90
48728;DHT22;34527;45.618;5.130;2023-07-02T11:37:39;21.50;99.90
48728;DHT22;34527;45.618;5.130;2023-07-02T11:40:05;21.60;99.90
48728;DHT22;34527;45.618;5.130;2023-07-02T11:42:31;21.80;99.90
48728;DHT22;34527;45.618;5.130;2023-07-02T11:44:56;22.00;99.90
48728;DHT22;34527;45.618;5.130;2023-07-02T11:47:22;22.20;99.90
48728;DHT22;34527;45.618;5.130;2023-07-02T11:49:48;22.40;99.90
48728;DHT22;34527;45.618;5.130;2023-07-02T11:52:13;22.60;99.90
48728;DHT22;34527;45.618;5.130;2023-07-02T11:54:40;22.70;99.90
48728;DHT22;34527;45.618;5.130;2023-07-02T11:57:06;22.80;99.90
48728;DHT22;34527;45.618;5.130;2023-07-02T11:59:31;22.70;99.90
48728;DHT22;34527;45.618;5.130;2023-07-02T12:01:57;22.60;99.90
48728;DHT22;34527;45.618;5.130;2023-07-02T12:04:23;22.70;99.90
48728;DHT22;34527;45.618;5.130;2023-07-02T12:06:48;23.00;99.90
48728;DHT22;34527;45.618;5.130;2023-07-02T12:09:14;23.10;99.90
48728;DHT22;34527;45.618;5.130;2023-07-02T12:11:39;23.30;99.90
48728;DHT22;34527;45.618;5.130;2023-07-02T12:14:05;23.50;99.90
48728;DHT22;34527;45.618;5.130;2023-07-02T12:16:31;23.30;99.90
48728;DHT22;34527;45.618;5.130;2023-07-02T12:18:56;23.10;99.90
48728;DHT22;34527;45.618;5.130;2023-07-02T12:21:22;23.00;99.90
48728;DHT22;34527;45.618;5.130;2023-07-02T12:23:47;22.80;99.90
48728;DHT22;34527;45.618;5.130;2023-07-02T12:26:13;22.50;99.90
48728;DHT22;34527;45.618;5.130;2023-07-02T12:28:38;22.50;99.90
48728;DHT22;34527;45.618;5.130;2023-07-02T12:31:04;22.50;99.90
48728;DHT22;34527;45.618;5.130;2023-07-02T12:33:29;22.50;99.90
48728;DHT22;34527;45.618;5.130;2023-07-02T12:35:55;22.70;99.90
48728;DHT22;34527;45.618;5.130;2023-07-02T12:38:21;22.90;99.90
48728;DHT22;34527;45.618;5.130;2023-07-02T12:40:46;22.90;99.90
48728;DHT22;34527;45.618;5.130;2023-07-02T12:43:14;23.00;99.90
48728;DHT22;34527;45.618;5.130;2023-07-02T12:45:39;23.10;99.90
48728;DHT22;34527;45.618;5.130;2023-07-02T12:48:05;23.20;99.90
48728;DHT22;34527;45.618;5.130;2023-07-02T12:50:30;23.10;99.90
48728;DHT22;34527;45.618;5.130;2023-07-02T12:52:56;23.00;99.90
48728;DHT22;34527;45.618;5.130;2023-07-02T12:55:22;23.10;99.90
48728;DHT22;34527;45.618;5.130;2023-07-02T12:57:47;22.90;99.90
48728;DHT22;34527;45.618;5.130;2023-07-02T13:00:13;22.70;99.90
48728;DHT22;34527;45.618;5.130;2023-07-02T13:02:39;22.70;99.90
48728;DHT22;34527;45.618;5.130;2023-07-02T13:05:05;22.50;99.90
48728;DHT22;34527;45.618;5.130;2023-07-02T13:07:31;22.50;99.90
48728;DHT22;34527;45.618;5.130;2023-07-02T13:09:56;22.40;99.90
48728;DHT22;34527;45.618;5.130;2023-07-02T13:12:22;21.90;99.90
48728;DHT22;34527;45.618;5.130;2023-07-02T13:14:47;21.50;99.90
48728;DHT22;34527;45.618;5.130;2023-07-02T13:17:13;21.30;99.90
48728;DHT22;34527;45.618;5.130;2023-07-02T13:19:39;21.00;99.90
48728;DHT22;34527;45.618;5.130;2023-07-02T13:22:04;20.90;99.90
48728;DHT22;34527;45.618;5.130;2023-07-02T13:24:34;20.80;99.90
48728;DHT22;34527;45.618;5.130;2023-07-02T13:27:05;20.80;99.90
48728;DHT22;34527;45.618;5.130;2023-07-02T13:29:32;20.80;99.90
48728;DHT22;34527;45.618;5.130;2023-07-02T13:31:58;20.90;99.90
48728;DHT22;34527;45.618;5.130;2023-07-02T13:34:23;20.90;99.90
48728;DHT22;34527;45.618;5.130;2023-07-02T13:36:49;20.90;99.90
48728;DHT22;34527;45.618;5.130;2023-07-02T13:39:15;20.80;99.90
48728;DHT22;34527;45.618;5.130;2023-07-02T13:41:40;21.00;99.90
48728;DHT22;34527;45.618;5.130;2023-07-02T13:44:06;21.10;99.90
48728;DHT22;34527;45.618;5.130;2023-07-02T13:46:31;21.30;99.90
48728;DHT22;34527;45.618;5.130;2023-07-02T13:48:57;21.30;99.90
48728;DHT22;34527;45.618;5.130;2023-07-02T13:51:23;21.30;99.90
48728;DHT22;34527;45.618;5.130;2023-07-02T13:53:48;21.30;99.90
48728;DHT22;34527;45.618;5.130;2023-07-02T13:56:14;21.40;99.90
48728;DHT22;34527;45.618;5.130;2023-07-02T13:59:08;21.60;99.90
48728;DHT22;34527;45.618;5.130;2023-07-02T14:01:33;21.60;99.90
48728;DHT22;34527;45.618;5.130;2023-07-02T14:04:00;21.60;99.90
48728;DHT22;34527;45.618;5.130;2023-07-02T14:06:25;21.70;99.90
48728;DHT22;34527;45.618;5.130;2023-07-02T14:08:51;21.60;99.90
48728;DHT22;34527;45.618;5.130;2023-07-02T14:11:17;21.60;99.90
48728;DHT22;34527;45.618;5.130;2023-07-02T14:13:43;21.70;99.90
48728;DHT22;34527;45.618;5.130;2023-07-02T14:16:08;21.70;99.90
48728;DHT22;34527;45.618;5.130;2023-07-02T14:18:34;21.80;99.90
48728;DHT22;34527;45.618;5.130;2023-07-02T14:21:00;21.80;99.90
48728;DHT22;34527;45.618;5.130;2023-07-02T14:23:26;22.00;99.90
48728;DHT22;34527;45.618;5.130;2023-07-02T14:25:52;22.30;99.90
48728;DHT22;34527;45.618;5.130;2023-07-02T14:28:18;22.60;99.90
48728;DHT22;34527;45.618;5.130;2023-07-02T14:30:43;22.70;99.90
48728;DHT22;34527;45.618;5.130;2023-07-02T14:33:09;22.80;99.90
48728;DHT22;34527;45.618;5.130;2023-07-02T14:35:35;22.70;99.90
48728;DHT22;34527;45.618;5.130;2023-07-02T14:38:01;23.00;99.90
48728;DHT22;34527;45.618;5.130;2023-07-02T14:40:27;22.90;99.90
48728;DHT22;34527;45.618;5.130;2023-07-02T14:42:52;22.90;99.90
48728;DHT22;34527;45.618;5.130;2023-07-02T14:45:18;22.80;99.90
48728;DHT22;34527;45.618;5.130;2023-07-02T14:47:43;22.90;99.90
48728;DHT22;34527;45.618;5.130;2023-07-02T14:50:09;23.00;99.90
48728;DHT22;34527;45.618;5.130;2023-07-02T14:52:35;23.10;99.90
48728;DHT22;34527;45.618;5.130;2023-07-02T14:55:01;23.20;99.90
48728;DHT22;34527;45.618;5.130;2023-07-02T14:57:27;23.20;99.90
48728;DHT22;34527;45.618;5.130;2023-07-02T14:59:52;23.20;99.90
48728;DHT22;34527;45.618;5.130;2023-07-02T15:02:18;23.20;99.90
48728;DHT22;34527;45.618;5.130;2023-07-02T15:04:44;23.10;99.90
48728;DHT22;34527;45.618;5.130;2023-07-02T15:07:10;23.10;99.90
48728;DHT22;34527;45.618;5.130;2023-07-02T15:09:36;23.10;99.90
48728;DHT22;34527;45.618;5.130;2023-07-02T15:12:02;23.10;99.90
48728;DHT22;34527;45.618;5.130;2023-07-02T15:14:27;23.10;99.90
48728;DHT22;34527;45.618;5.130;2023-07-02T15:16:53;23.20;99.90
48728;DHT22;34527;45.618;5.130;2023-07-02T15:19:19;23.20;99.90
48728;DHT22;34527;45.618;5.130;2023-07-02T15:21:45;23.20;99.90
48728;DHT22;34527;45.618;5.130;2023-07-02T15:24:10;23.20;99.90
48728;DHT22;34527;45.618;5.130;2023-07-02T15:26:38;23.20;99.90
48728;DHT22;34527;45.618;5.130;2023-07-02T15:29:05;23.10;99.90
48728;DHT22;34527;45.618;5.130;2023-07-02T15:31:31;23.20;99.90
48728;DHT22;34527;45.618;5.130;2023-07-02T15:33:57;23.20;99.90